Benone, United Kingdom
Current Conditions -  °F | °C
As of 3:20 AM on Tuesday 27 Jan 2015 (Local Time) from EGPI Reporting Station
Broken Clouds Broken Clouds  
Wind Chill:   Ceiling: 3400
Heat Index:   Visibility: 6mi
Dew Point:   Wind: 17mph
Humidity: 93%   Direction: 280°W
Pressure: 30.27"   Gusts: NA
Location:  55.17°N, 6.88°W
Report Text: EGPI 270320Z AUTO 28015KT 9000 FEW023/// BKN034/// 08/07 Q1025 RERA
Loading
Personal Weather Stations






























Interactive Weather Map New forecast layout! Learn more

10-Day Weather Forecast

Advertisements
Track Severe Weather on mobile